sensor_id;sensor_type;location;lat;lon;timestamp;temperature;humidity
5870;DHT22;2961;47.702;9.410;2022-07-12T00:01:29;17.00;99.90
5870;DHT22;2961;47.702;9.410;2022-07-12T00:03:56;17.00;99.90
5870;DHT22;2961;47.702;9.410;2022-07-12T00:06:22;17.00;99.90
5870;DHT22;2961;47.702;9.410;2022-07-12T00:08:49;17.00;99.90
5870;DHT22;2961;47.702;9.410;2022-07-12T00:11:16;16.90;99.90
5870;DHT22;2961;47.702;9.410;2022-07-12T00:13:43;16.90;99.90
5870;DHT22;2961;47.702;9.410;2022-07-12T00:16:10;16.90;99.90
5870;DHT22;2961;47.702;9.410;2022-07-12T00:18:38;16.80;99.90
5870;DHT22;2961;47.702;9.410;2022-07-12T00:21:07;16.70;99.90
5870;DHT22;2961;47.702;9.410;2022-07-12T00:23:34;16.70;99.90
5870;DHT22;2961;47.702;9.410;2022-07-12T00:26:01;16.70;99.90
5870;DHT22;2961;47.702;9.410;2022-07-12T00:28:29;16.60;99.90
5870;DHT22;2961;47.702;9.410;2022-07-12T00:30:56;16.70;99.90
5870;DHT22;2961;47.702;9.410;2022-07-12T00:33:23;16.70;99.90
5870;DHT22;2961;47.702;9.410;2022-07-12T00:35:51;16.60;99.90
5870;DHT22;2961;47.702;9.410;2022-07-12T00:38:18;16.60;99.90
5870;DHT22;2961;47.702;9.410;2022-07-12T00:40:45;16.60;99.90
5870;DHT22;2961;47.702;9.410;2022-07-12T00:43:12;16.60;99.90
5870;DHT22;2961;47.702;9.410;2022-07-12T00:45:39;16.50;99.90
5870;DHT22;2961;47.702;9.410;2022-07-12T00:48:06;16.60;99.90
5870;DHT22;2961;47.702;9.410;2022-07-12T00:50:33;16.50;99.90
5870;DHT22;2961;47.702;9.410;2022-07-12T00:53:02;16.50;99.90
5870;DHT22;2961;47.702;9.410;2022-07-12T00:55:29;16.40;99.90
5870;DHT22;2961;47.702;9.410;2022-07-12T00:57:55;16.40;99.90
5870;DHT22;2961;47.702;9.410;2022-07-12T01:00:24;16.50;99.90
5870;DHT22;2961;47.702;9.410;2022-07-12T01:02:51;16.40;99.90
5870;DHT22;2961;47.702;9.410;2022-07-12T01:05:19;16.40;99.90
5870;DHT22;2961;47.702;9.410;2022-07-12T01:07:46;16.40;99.90
5870;DHT22;2961;47.702;9.410;2022-07-12T01:10:14;16.40;99.90
5870;DHT22;2961;47.702;9.410;2022-07-12T01:12:41;16.50;99.90
5870;DHT22;2961;47.702;9.410;2022-07-12T01:15:09;16.50;99.90
5870;DHT22;2961;47.702;9.410;2022-07-12T01:17:36;16.40;99.90
5870;DHT22;2961;47.702;9.410;2022-07-12T01:20:05;16.40;99.90
5870;DHT22;2961;47.702;9.410;2022-07-12T01:22:34;16.30;99.90
5870;DHT22;2961;47.702;9.410;2022-07-12T01:25:04;16.30;99.90
5870;DHT22;2961;47.702;9.410;2022-07-12T01:27:32;16.30;99.90
5870;DHT22;2961;47.702;9.410;2022-07-12T01:30:01;16.30;99.90
5870;DHT22;2961;47.702;9.410;2022-07-12T01:32:28;16.30;99.90
5870;DHT22;2961;47.702;9.410;2022-07-12T01:34:57;16.30;99.90
5870;DHT22;2961;47.702;9.410;2022-07-12T01:37:25;16.20;99.90
5870;DHT22;2961;47.702;9.410;2022-07-12T01:39:54;16.30;99.90
5870;DHT22;2961;47.702;9.410;2022-07-12T01:42:23;16.30;99.90
5870;DHT22;2961;47.702;9.410;2022-07-12T01:44:51;16.20;99.90
5870;DHT22;2961;47.702;9.410;2022-07-12T01:47:19;16.20;99.90
5870;DHT22;2961;47.702;9.410;2022-07-12T01:49:46;16.20;99.90
5870;DHT22;2961;47.702;9.410;2022-07-12T01:52:14;16.20;99.90
5870;DHT22;2961;47.702;9.410;2022-07-12T01:54:41;16.10;99.90
5870;DHT22;2961;47.702;9.410;2022-07-12T01:57:09;16.10;99.90
5870;DHT22;2961;47.702;9.410;2022-07-12T01:59:38;16.10;99.90
5870;DHT22;2961;47.702;9.410;2022-07-12T02:02:05;16.10;99.90
5870;DHT22;2961;47.702;9.410;2022-07-12T02:04:33;16.00;99.90
5870;DHT22;2961;47.702;9.410;2022-07-12T02:07:00;16.10;99.90
5870;DHT22;2961;47.702;9.410;2022-07-12T02:09:27;16.00;99.90
5870;DHT22;2961;47.702;9.410;2022-07-12T02:11:55;16.00;99.90
5870;DHT22;2961;47.702;9.410;2022-07-12T02:14:21;16.00;99.90
5870;DHT22;2961;47.702;9.410;2022-07-12T02:16:50;16.10;99.90
5870;DHT22;2961;47.702;9.410;2022-07-12T02:19:16;16.10;99.90
5870;DHT22;2961;47.702;9.410;2022-07-12T02:21:43;16.00;99.90
5870;DHT22;2961;47.702;9.410;2022-07-12T02:24:10;16.00;99.90
5870;DHT22;2961;47.702;9.410;2022-07-12T02:26:37;16.00;99.90
5870;DHT22;2961;47.702;9.410;2022-07-12T02:29:05;16.00;99.90
5870;DHT22;2961;47.702;9.410;2022-07-12T02:31:32;16.00;99.90
5870;DHT22;2961;47.702;9.410;2022-07-12T02:34:00;15.90;99.90
5870;DHT22;2961;47.702;9.410;2022-07-12T02:36:27;15.90;99.90
5870;DHT22;2961;47.702;9.410;2022-07-12T02:38:54;15.90;99.90
5870;DHT22;2961;47.702;9.410;2022-07-12T02:41:21;15.90;99.90
5870;DHT22;2961;47.702;9.410;2022-07-12T02:43:48;15.90;99.90
5870;DHT22;2961;47.702;9.410;2022-07-12T02:46:15;15.90;99.90
5870;DHT22;2961;47.702;9.410;2022-07-12T02:48:42;15.90;99.90
5870;DHT22;2961;47.702;9.410;2022-07-12T02:51:10;15.80;99.90
5870;DHT22;2961;47.702;9.410;2022-07-12T02:53:37;15.90;99.90
5870;DHT22;2961;47.702;9.410;2022-07-12T02:56:05;15.80;99.90
5870;DHT22;2961;47.702;9.410;2022-07-12T02:58:33;15.80;99.90
5870;DHT22;2961;47.702;9.410;2022-07-12T03:01:00;15.80;99.90
5870;DHT22;2961;47.702;9.410;2022-07-12T03:03:27;15.70;99.90
5870;DHT22;2961;47.702;9.410;2022-07-12T03:05:54;15.60;99.90
5870;DHT22;2961;47.702;9.410;2022-07-12T03:08:22;15.60;99.90
5870;DHT22;2961;47.702;9.410;2022-07-12T03:10:49;15.60;99.90
5870;DHT22;2961;47.702;9.410;2022-07-12T03:13:16;15.50;99.90
5870;DHT22;2961;47.702;9.410;2022-07-12T03:15:43;15.30;99.90
5870;DHT22;2961;47.702;9.410;2022-07-12T03:18:11;15.00;99.90
5870;DHT22;2961;47.702;9.410;2022-07-12T03:20:39;14.80;99.90
5870;DHT22;2961;47.702;9.410;2022-07-12T03:23:05;14.50;99.90
5870;DHT22;2961;47.702;9.410;2022-07-12T03:25:34;14.20;99.90
5870;DHT22;2961;47.702;9.410;2022-07-12T03:28:01;14.10;99.90
5870;DHT22;2961;47.702;9.410;2022-07-12T03:30:28;14.00;99.90
5870;DHT22;2961;47.702;9.410;2022-07-12T03:32:55;13.90;99.90
5870;DHT22;2961;47.702;9.410;2022-07-12T03:35:22;13.90;99.90
5870;DHT22;2961;47.702;9.410;2022-07-12T03:37:50;13.80;99.90
5870;DHT22;2961;47.702;9.410;2022-07-12T03:40:18;13.80;99.90
5870;DHT22;2961;47.702;9.410;2022-07-12T03:42:48;13.90;99.90
5870;DHT22;2961;47.702;9.410;2022-07-12T03:45:15;13.80;99.90
5870;DHT22;2961;47.702;9.410;2022-07-12T03:47:42;13.80;99.90
5870;DHT22;2961;47.702;9.410;2022-07-12T03:50:11;13.80;99.90
5870;DHT22;2961;47.702;9.410;2022-07-12T03:52:39;13.80;99.90
5870;DHT22;2961;47.702;9.410;2022-07-12T03:55:07;13.80;99.90
5870;DHT22;2961;47.702;9.410;2022-07-12T03:57:34;13.70;99.90
5870;DHT22;2961;47.702;9.410;2022-07-12T04:00:04;13.80;99.90
5870;DHT22;2961;47.702;9.410;2022-07-12T04:02:31;13.80;99.90
5870;DHT22;2961;47.702;9.410;2022-07-12T04:04:58;13.80;99.90
5870;DHT22;2961;47.702;9.410;2022-07-12T04:07:25;13.90;99.90
5870;DHT22;2961;47.702;9.410;2022-07-12T04:09:51;13.90;99.90
5870;DHT22;2961;47.702;9.410;2022-07-12T04:12:18;13.90;99.90
5870;DHT22;2961;47.702;9.410;2022-07-12T04:14:45;13.80;99.90
5870;DHT22;2961;47.702;9.410;2022-07-12T04:17:13;13.90;99.90
5870;DHT22;2961;47.702;9.410;2022-07-12T04:19:40;13.90;99.90
5870;DHT22;2961;47.702;9.410;2022-07-12T04:22:07;14.00;99.90
5870;DHT22;2961;47.702;9.410;2022-07-12T04:24:33;14.00;99.90
5870;DHT22;2961;47.702;9.410;2022-07-12T04:27:00;13.90;99.90
5870;DHT22;2961;47.702;9.410;2022-07-12T04:29:27;14.50;99.90
5870;DHT22;2961;47.702;9.410;2022-07-12T04:31:54;15.30;99.90
5870;DHT22;2961;47.702;9.410;2022-07-12T04:34:22;15.70;99.90
5870;DHT22;2961;47.702;9.410;2022-07-12T04:36:49;15.70;99.90
5870;DHT22;2961;47.702;9.410;2022-07-12T04:39:16;15.60;99.90
5870;DHT22;2961;47.702;9.410;2022-07-12T04:41:43;15.50;99.90
5870;DHT22;2961;47.702;9.410;2022-07-12T04:44:09;15.40;99.90
5870;DHT22;2961;47.702;9.410;2022-07-12T04:46:36;15.60;99.90
5870;DHT22;2961;47.702;9.410;2022-07-12T04:49:03;15.70;99.90
5870;DHT22;2961;47.702;9.410;2022-07-12T04:51:33;15.80;99.90
5870;DHT22;2961;47.702;9.410;2022-07-12T04:54:00;15.80;99.90
5870;DHT22;2961;47.702;9.410;2022-07-12T04:56:26;15.90;99.90
5870;DHT22;2961;47.702;9.410;2022-07-12T04:58:53;16.00;99.90
5870;DHT22;2961;47.702;9.410;2022-07-12T05:01:20;16.20;99.90
5870;DHT22;2961;47.702;9.410;2022-07-12T05:03:47;16.70;99.90
5870;DHT22;2961;47.702;9.410;2022-07-12T05:06:14;17.50;99.90
5870;DHT22;2961;47.702;9.410;2022-07-12T05:08:42;18.70;99.90
5870;DHT22;2961;47.702;9.410;2022-07-12T05:11:09;20.00;99.90
5870;DHT22;2961;47.702;9.410;2022-07-12T05:13:36;21.20;99.90
5870;DHT22;2961;47.702;9.410;2022-07-12T05:16:03;22.10;99.90
5870;DHT22;2961;47.702;9.410;2022-07-12T05:18:32;22.90;96.80
5870;DHT22;2961;47.702;9.410;2022-07-12T05:20:58;23.20;95.70
5870;DHT22;2961;47.702;9.410;2022-07-12T05:23:25;23.30;94.70
5870;DHT22;2961;47.702;9.410;2022-07-12T05:25:53;23.30;93.70
5870;DHT22;2961;47.702;9.410;2022-07-12T05:28:20;23.40;94.30
5870;DHT22;2961;47.702;9.410;2022-07-12T05:30:47;23.80;92.90
5870;DHT22;2961;47.702;9.410;2022-07-12T05:33:14;24.00;92.30
5870;DHT22;2961;47.702;9.410;2022-07-12T05:35:41;24.50;91.00
5870;DHT22;2961;47.702;9.410;2022-07-12T05:38:08;24.50;90.70
5870;DHT22;2961;47.702;9.410;2022-07-12T05:40:34;24.60;90.40
5870;DHT22;2961;47.702;9.410;2022-07-12T05:43:03;24.60;90.10
5870;DHT22;2961;47.702;9.410;2022-07-12T05:45:29;25.00;90.30
5870;DHT22;2961;47.702;9.410;2022-07-12T05:47:56;25.50;86.90
5870;DHT22;2961;47.702;9.410;2022-07-12T05:50:23;25.60;86.00
5870;DHT22;2961;47.702;9.410;2022-07-12T05:52:50;25.50;86.00
5870;DHT22;2961;47.702;9.410;2022-07-12T05:55:34;25.70;84.80
5870;DHT22;2961;47.702;9.410;2022-07-12T05:58:02;26.10;84.70
5870;DHT22;2961;47.702;9.410;2022-07-12T06:00:30;25.90;83.10
5870;DHT22;2961;47.702;9.410;2022-07-12T06:02:57;26.00;83.30
5870;DHT22;2961;47.702;9.410;2022-07-12T06:05:24;26.30;81.80
5870;DHT22;2961;47.702;9.410;2022-07-12T06:07:51;26.90;78.60
5870;DHT22;2961;47.702;9.410;2022-07-12T06:10:18;27.00;79.30
5870;DHT22;2961;47.702;9.410;2022-07-12T06:12:44;27.20;78.30
5870;DHT22;2961;47.702;9.410;2022-07-12T06:15:13;27.10;77.60
5870;DHT22;2961;47.702;9.410;2022-07-12T06:17:40;27.20;77.40
5870;DHT22;2961;47.702;9.410;2022-07-12T06:20:08;27.20;77.60
5870;DHT22;2961;47.702;9.410;2022-07-12T06:22:34;27.50;76.60
5870;DHT22;2961;47.702;9.410;2022-07-12T06:25:01;27.80;75.10
5870;DHT22;2961;47.702;9.410;2022-07-12T06:27:28;27.90;74.20
5870;DHT22;2961;47.702;9.410;2022-07-12T06:29:55;27.80;73.80
5870;DHT22;2961;47.702;9.410;2022-07-12T06:32:23;27.60;75.20
5870;DHT22;2961;47.702;9.410;2022-07-12T06:34:50;28.10;74.00
5870;DHT22;2961;47.702;9.410;2022-07-12T06:37:17;28.00;72.80
5870;DHT22;2961;47.702;9.410;2022-07-12T06:39:44;28.40;73.20
5870;DHT22;2961;47.702;9.410;2022-07-12T06:42:12;28.70;71.30
5870;DHT22;2961;47.702;9.410;2022-07-12T06:44:39;29.20;88.10
5870;DHT22;2961;47.702;9.410;2022-07-12T06:47:06;29.00;89.90
5870;DHT22;2961;47.702;9.410;2022-07-12T06:49:34;29.10;90.70
5870;DHT22;2961;47.702;9.410;2022-07-12T06:52:01;29.60;90.60
5870;DHT22;2961;47.702;9.410;2022-07-12T06:54:28;30.10;89.60
5870;DHT22;2961;47.702;9.410;2022-07-12T06:56:54;30.20;88.00
5870;DHT22;2961;47.702;9.410;2022-07-12T06:59:21;29.90;88.80
5870;DHT22;2961;47.702;9.410;2022-07-12T07:01:48;30.00;89.60
5870;DHT22;2961;47.702;9.410;2022-07-12T07:04:15;30.00;88.40
5870;DHT22;2961;47.702;9.410;2022-07-12T07:06:43;29.80;88.90
5870;DHT22;2961;47.702;9.410;2022-07-12T07:09:10;29.90;89.40
5870;DHT22;2961;47.702;9.410;2022-07-12T07:11:37;30.50;81.10
5870;DHT22;2961;47.702;9.410;2022-07-12T07:14:04;30.30;68.30
5870;DHT22;2961;47.702;9.410;2022-07-12T07:16:31;31.20;63.10
5870;DHT22;2961;47.702;9.410;2022-07-12T07:18:58;31.40;62.60
5870;DHT22;2961;47.702;9.410;2022-07-12T07:21:25;32.20;59.90
5870;DHT22;2961;47.702;9.410;2022-07-12T07:23:53;32.90;59.40
5870;DHT22;2961;47.702;9.410;2022-07-12T07:26:21;32.90;56.90
5870;DHT22;2961;47.702;9.410;2022-07-12T07:28:48;32.50;55.90
5870;DHT22;2961;47.702;9.410;2022-07-12T07:31:33;32.30;57.20
5870;DHT22;2961;47.702;9.410;2022-07-12T07:34:01;32.70;56.30
5870;DHT22;2961;47.702;9.410;2022-07-12T07:36:28;32.60;57.50
5870;DHT22;2961;47.702;9.410;2022-07-12T07:38:57;32.60;55.10
5870;DHT22;2961;47.702;9.410;2022-07-12T07:41:24;32.10;55.50
5870;DHT22;2961;47.702;9.410;2022-07-12T07:43:51;32.00;56.40
5870;DHT22;2961;47.702;9.410;2022-07-12T07:46:18;31.80;55.20
5870;DHT22;2961;47.702;9.410;2022-07-12T07:48:45;31.60;55.50
5870;DHT22;2961;47.702;9.410;2022-07-12T07:51:11;31.00;57.10
5870;DHT22;2961;47.702;9.410;2022-07-12T07:53:38;31.00;57.90
5870;DHT22;2961;47.702;9.410;2022-07-12T07:56:07;31.50;58.20
5870;DHT22;2961;47.702;9.410;2022-07-12T07:58:34;31.60;55.40
5870;DHT22;2961;47.702;9.410;2022-07-12T08:01:01;31.90;55.40
5870;DHT22;2961;47.702;9.410;2022-07-12T08:03:27;31.80;53.30
5870;DHT22;2961;47.702;9.410;2022-07-12T08:05:54;31.70;53.40
5870;DHT22;2961;47.702;9.410;2022-07-12T08:08:23;31.40;54.40
5870;DHT22;2961;47.702;9.410;2022-07-12T08:10:50;31.20;55.70
5870;DHT22;2961;47.702;9.410;2022-07-12T08:13:18;31.50;55.10
5870;DHT22;2961;47.702;9.410;2022-07-12T08:15:45;31.30;54.50
5870;DHT22;2961;47.702;9.410;2022-07-12T08:18:12;30.80;56.40
5870;DHT22;2961;47.702;9.410;2022-07-12T08:20:39;30.90;55.20
5870;DHT22;2961;47.702;9.410;2022-07-12T08:23:05;30.40;53.70
5870;DHT22;2961;47.702;9.410;2022-07-12T08:25:32;30.00;55.90
5870;DHT22;2961;47.702;9.410;2022-07-12T08:27:59;30.00;54.80
5870;DHT22;2961;47.702;9.410;2022-07-12T08:30:27;30.30;56.30
5870;DHT22;2961;47.702;9.410;2022-07-12T08:32:54;30.20;55.20
5870;DHT22;2961;47.702;9.410;2022-07-12T08:35:21;30.20;54.80
5870;DHT22;2961;47.702;9.410;2022-07-12T08:37:49;30.00;56.30
5870;DHT22;2961;47.702;9.410;2022-07-12T08:40:16;30.20;54.10
5870;DHT22;2961;47.702;9.410;2022-07-12T08:42:42;30.10;56.80
5870;DHT22;2961;47.702;9.410;2022-07-12T08:45:10;29.90;55.80
5870;DHT22;2961;47.702;9.410;2022-07-12T08:47:38;29.40;56.30
5870;DHT22;2961;47.702;9.410;2022-07-12T08:50:09;29.70;55.20
5870;DHT22;2961;47.702;9.410;2022-07-12T08:52:38;29.50;53.90
5870;DHT22;2961;47.702;9.410;2022-07-12T08:55:16;29.10;56.20
5870;DHT22;2961;47.702;9.410;2022-07-12T08:57:43;29.30;56.20
5870;DHT22;2961;47.702;9.410;2022-07-12T09:00:11;29.50;56.20
5870;DHT22;2961;47.702;9.410;2022-07-12T09:02:49;29.60;55.40
5870;DHT22;2961;47.702;9.410;2022-07-12T09:05:18;29.70;54.00
5870;DHT22;2961;47.702;9.410;2022-07-12T09:07:45;29.90;53.50
5870;DHT22;2961;47.702;9.410;2022-07-12T09:10:12;30.20;56.70
5870;DHT22;2961;47.702;9.410;2022-07-12T09:12:41;30.70;54.70
5870;DHT22;2961;47.702;9.410;2022-07-12T09:15:13;30.90;54.50
5870;DHT22;2961;47.702;9.410;2022-07-12T09:17:40;30.80;54.40
5870;DHT22;2961;47.702;9.410;2022-07-12T09:20:11;30.90;55.90
5870;DHT22;2961;47.702;9.410;2022-07-12T09:22:47;30.70;56.70
5870;DHT22;2961;47.702;9.410;2022-07-12T09:25:17;30.90;54.40
5870;DHT22;2961;47.702;9.410;2022-07-12T09:27:48;31.10;53.60
5870;DHT22;2961;47.702;9.410;2022-07-12T09:30:17;31.20;53.60
5870;DHT22;2961;47.702;9.410;2022-07-12T09:32:57;31.20;54.20
5870;DHT22;2961;47.702;9.410;2022-07-12T09:35:43;31.70;53.70
5870;DHT22;2961;47.702;9.410;2022-07-12T09:38:28;32.00;52.70
5870;DHT22;2961;47.702;9.410;2022-07-12T09:40:55;31.80;55.00
5870;DHT22;2961;47.702;9.410;2022-07-12T09:43:23;32.00;53.30
5870;DHT22;2961;47.702;9.410;2022-07-12T09:45:50;31.80;51.20
5870;DHT22;2961;47.702;9.410;2022-07-12T09:48:19;31.50;50.90
5870;DHT22;2961;47.702;9.410;2022-07-12T09:50:49;31.50;52.10
5870;DHT22;2961;47.702;9.410;2022-07-12T09:53:21;31.20;50.80
5870;DHT22;2961;47.702;9.410;2022-07-12T09:55:52;30.60;50.80
5870;DHT22;2961;47.702;9.410;2022-07-12T09:58:24;30.30;53.40
5870;DHT22;2961;47.702;9.410;2022-07-12T10:00:53;30.40;51.90
5870;DHT22;2961;47.702;9.410;2022-07-12T10:03:23;30.00;53.40
5870;DHT22;2961;47.702;9.410;2022-07-12T10:05:53;30.20;53.90
5870;DHT22;2961;47.702;9.410;2022-07-12T10:08:20;30.10;53.30
5870;DHT22;2961;47.702;9.410;2022-07-12T10:10:48;30.00;53.80
5870;DHT22;2961;47.702;9.410;2022-07-12T10:13:17;30.20;52.80
5870;DHT22;2961;47.702;9.410;2022-07-12T10:15:46;30.30;53.50
5870;DHT22;2961;47.702;9.410;2022-07-12T10:18:17;30.20;53.30
5870;DHT22;2961;47.702;9.410;2022-07-12T10:20:45;30.00;53.50
5870;DHT22;2961;47.702;9.410;2022-07-12T10:23:30;29.40;54.90
5870;DHT22;2961;47.702;9.410;2022-07-12T10:26:00;29.40;54.80
5870;DHT22;2961;47.702;9.410;2022-07-12T10:28:56;29.20;55.10
5870;DHT22;2961;47.702;9.410;2022-07-12T10:31:24;28.50;55.80
5870;DHT22;2961;47.702;9.410;2022-07-12T10:34:11;27.90;58.70
5870;DHT22;2961;47.702;9.410;2022-07-12T10:37:08;27.40;57.80
5870;DHT22;2961;47.702;9.410;2022-07-12T10:39:37;27.10;60.00
5870;DHT22;2961;47.702;9.410;2022-07-12T10:42:14;27.00;59.60
5870;DHT22;2961;47.702;9.410;2022-07-12T10:44:43;26.40;61.60
5870;DHT22;2961;47.702;9.410;2022-07-12T10:47:11;26.00;65.90
5870;DHT22;2961;47.702;9.410;2022-07-12T10:49:46;25.90;64.90
5870;DHT22;2961;47.702;9.410;2022-07-12T10:52:26;25.80;65.90
5870;DHT22;2961;47.702;9.410;2022-07-12T10:55:17;25.80;65.50
5870;DHT22;2961;47.702;9.410;2022-07-12T10:57:48;25.80;65.20
5870;DHT22;2961;47.702;9.410;2022-07-12T11:00:20;25.90;64.70
5870;DHT22;2961;47.702;9.410;2022-07-12T11:02:48;25.80;65.90
5870;DHT22;2961;47.702;9.410;2022-07-12T11:05:15;25.60;67.80
5870;DHT22;2961;47.702;9.410;2022-07-12T11:07:42;25.40;67.20
5870;DHT22;2961;47.702;9.410;2022-07-12T11:10:11;25.40;68.10
5870;DHT22;2961;47.702;9.410;2022-07-12T11:12:41;25.30;66.60
5870;DHT22;2961;47.702;9.410;2022-07-12T11:15:08;25.40;67.50
5870;DHT22;2961;47.702;9.410;2022-07-12T11:17:35;25.40;67.80
5870;DHT22;2961;47.702;9.410;2022-07-12T11:20:12;25.50;67.40
5870;DHT22;2961;47.702;9.410;2022-07-12T11:22:41;25.60;63.80
5870;DHT22;2961;47.702;9.410;2022-07-12T11:25:10;25.60;67.10
5870;DHT22;2961;47.702;9.410;2022-07-12T11:27:37;25.70;64.80
5870;DHT22;2961;47.702;9.410;2022-07-12T11:30:09;25.70;65.70
5870;DHT22;2961;47.702;9.410;2022-07-12T11:32:38;25.70;64.60
5870;DHT22;2961;47.702;9.410;2022-07-12T11:35:18;25.70;64.30
5870;DHT22;2961;47.702;9.410;2022-07-12T11:37:53;25.70;62.70
5870;DHT22;2961;47.702;9.410;2022-07-12T11:40:24;25.70;63.90
5870;DHT22;2961;47.702;9.410;2022-07-12T11:42:55;25.80;66.30
5870;DHT22;2961;47.702;9.410;2022-07-12T11:45:26;25.80;63.50
5870;DHT22;2961;47.702;9.410;2022-07-12T11:47:52;25.60;64.60
5870;DHT22;2961;47.702;9.410;2022-07-12T11:50:20;25.60;68.00
5870;DHT22;2961;47.702;9.410;2022-07-12T11:52:47;25.60;65.70
5870;DHT22;2961;47.702;9.410;2022-07-12T11:55:14;25.80;67.30
5870;DHT22;2961;47.702;9.410;2022-07-12T11:57:42;26.00;66.30
5870;DHT22;2961;47.702;9.410;2022-07-12T12:00:19;26.20;64.10
5870;DHT22;2961;47.702;9.410;2022-07-12T12:02:51;26.20;64.40
5870;DHT22;2961;47.702;9.410;2022-07-12T12:05:18;26.30;63.80
5870;DHT22;2961;47.702;9.410;2022-07-12T12:07:45;26.20;62.50
5870;DHT22;2961;47.702;9.410;2022-07-12T12:10:13;26.10;63.80
5870;DHT22;2961;47.702;9.410;2022-07-12T12:12:42;26.00;64.30
5870;DHT22;2961;47.702;9.410;2022-07-12T12:15:11;26.00;64.50
5870;DHT22;2961;47.702;9.410;2022-07-12T12:17:45;26.10;64.70
5870;DHT22;2961;47.702;9.410;2022-07-12T12:20:16;26.10;64.50
5870;DHT22;2961;47.702;9.410;2022-07-12T12:22:44;26.30;64.80
5870;DHT22;2961;47.702;9.410;2022-07-12T12:25:13;26.50;64.50
5870;DHT22;2961;47.702;9.410;2022-07-12T12:27:43;26.50;62.80
5870;DHT22;2961;47.702;9.410;2022-07-12T12:30:11;26.60;63.20
5870;DHT22;2961;47.702;9.410;2022-07-12T12:32:48;26.70;63.00
5870;DHT22;2961;47.702;9.410;2022-07-12T12:35:19;26.80;64.20
5870;DHT22;2961;47.702;9.410;2022-07-12T12:37:54;26.80;61.70
5870;DHT22;2961;47.702;9.410;2022-07-12T12:40:23;26.60;62.80
5870;DHT22;2961;47.702;9.410;2022-07-12T12:42:50;26.70;63.90
5870;DHT22;2961;47.702;9.410;2022-07-12T12:45:22;26.80;63.60
5870;DHT22;2961;47.702;9.410;2022-07-12T12:47:59;26.80;60.90
5870;DHT22;2961;47.702;9.410;2022-07-12T12:50:38;26.60;62.40
5870;DHT22;2961;47.702;9.410;2022-07-12T12:53:16;26.50;61.70
5870;DHT22;2961;47.702;9.410;2022-07-12T12:55:44;26.40;61.00
5870;DHT22;2961;47.702;9.410;2022-07-12T12:58:12;26.30;61.80
5870;DHT22;2961;47.702;9.410;2022-07-12T13:00:41;26.30;60.40
5870;DHT22;2961;47.702;9.410;2022-07-12T13:03:09;26.30;60.20
5870;DHT22;2961;47.702;9.410;2022-07-12T13:05:38;26.30;59.90
5870;DHT22;2961;47.702;9.410;2022-07-12T13:08:07;26.30;59.00
5870;DHT22;2961;47.702;9.410;2022-07-12T13:10:34;26.40;61.30
5870;DHT22;2961;47.702;9.410;2022-07-12T13:13:02;26.60;61.40
5870;DHT22;2961;47.702;9.410;2022-07-12T13:15:29;26.50;59.80
5870;DHT22;2961;47.702;9.410;2022-07-12T13:17:56;26.50;60.30
5870;DHT22;2961;47.702;9.410;2022-07-12T13:20:24;26.50;60.40
5870;DHT22;2961;47.702;9.410;2022-07-12T13:22:53;26.50;62.00
5870;DHT22;2961;47.702;9.410;2022-07-12T13:25:21;26.60;61.60
5870;DHT22;2961;47.702;9.410;2022-07-12T13:27:48;26.60;59.00
5870;DHT22;2961;47.702;9.410;2022-07-12T13:30:16;26.60;56.70
5870;DHT22;2961;47.702;9.410;2022-07-12T13:32:43;26.60;59.10
5870;DHT22;2961;47.702;9.410;2022-07-12T13:35:11;26.60;58.90
5870;DHT22;2961;47.702;9.410;2022-07-12T13:37:40;26.60;55.80
5870;DHT22;2961;47.702;9.410;2022-07-12T13:40:09;26.60;56.60
5870;DHT22;2961;47.702;9.410;2022-07-12T13:42:44;26.70;56.30
5870;DHT22;2961;47.702;9.410;2022-07-12T13:45:13;26.80;56.50
5870;DHT22;2961;47.702;9.410;2022-07-12T13:47:40;26.80;57.50
5870;DHT22;2961;47.702;9.410;2022-07-12T13:50:09;26.90;55.90
5870;DHT22;2961;47.702;9.410;2022-07-12T13:52:36;26.90;57.10
5870;DHT22;2961;47.702;9.410;2022-07-12T13:55:04;27.00;56.90
5870;DHT22;2961;47.702;9.410;2022-07-12T13:57:33;27.00;52.80
5870;DHT22;2961;47.702;9.410;2022-07-12T14:00:00;27.00;54.10
5870;DHT22;2961;47.702;9.410;2022-07-12T14:02:28;27.10;53.70
5870;DHT22;2961;47.702;9.410;2022-07-12T14:04:54;27.10;53.70
5870;DHT22;2961;47.702;9.410;2022-07-12T14:07:21;27.20;55.50
5870;DHT22;2961;47.702;9.410;2022-07-12T14:09:48;27.20;53.20
5870;DHT22;2961;47.702;9.410;2022-07-12T14:12:15;27.20;52.10
5870;DHT22;2961;47.702;9.410;2022-07-12T14:14:43;27.40;55.30
5870;DHT22;2961;47.702;9.410;2022-07-12T14:17:27;27.40;51.40
5870;DHT22;2961;47.702;9.410;2022-07-12T14:19:54;27.50;50.40
5870;DHT22;2961;47.702;9.410;2022-07-12T14:22:22;27.40;48.30
5870;DHT22;2961;47.702;9.410;2022-07-12T14:24:49;27.40;51.80
5870;DHT22;2961;47.702;9.410;2022-07-12T14:27:15;27.40;50.00
5870;DHT22;2961;47.702;9.410;2022-07-12T14:29:43;27.20;49.30
5870;DHT22;2961;47.702;9.410;2022-07-12T14:32:11;27.20;54.30
5870;DHT22;2961;47.702;9.410;2022-07-12T14:34:37;27.30;52.30
5870;DHT22;2961;47.702;9.410;2022-07-12T14:37:04;27.40;55.90
5870;DHT22;2961;47.702;9.410;2022-07-12T14:39:31;27.50;56.30
5870;DHT22;2961;47.702;9.410;2022-07-12T14:41:59;27.50;54.80
5870;DHT22;2961;47.702;9.410;2022-07-12T14:44:26;27.50;53.90
5870;DHT22;2961;47.702;9.410;2022-07-12T14:46:54;27.50;55.90
5870;DHT22;2961;47.702;9.410;2022-07-12T14:49:21;27.50;54.30
5870;DHT22;2961;47.702;9.410;2022-07-12T14:51:48;27.60;55.20
5870;DHT22;2961;47.702;9.410;2022-07-12T14:54:15;27.50;54.60
5870;DHT22;2961;47.702;9.410;2022-07-12T14:56:48;27.50;51.30
5870;DHT22;2961;47.702;9.410;2022-07-12T14:59:15;27.40;49.60
5870;DHT22;2961;47.702;9.410;2022-07-12T15:01:45;27.30;51.10
5870;DHT22;2961;47.702;9.410;2022-07-12T15:04:13;27.20;53.10
5870;DHT22;2961;47.702;9.410;2022-07-12T15:06:43;27.20;54.70
5870;DHT22;2961;47.702;9.410;2022-07-12T15:09:10;27.20;49.50
5870;DHT22;2961;47.702;9.410;2022-07-12T15:11:37;27.10;47.10
5870;DHT22;2961;47.702;9.410;2022-07-12T15:14:03;27.10;52.00
5870;DHT22;2961;47.702;9.410;2022-07-12T15:16:30;27.10;52.60
5870;DHT22;2961;47.702;9.410;2022-07-12T15:18:57;27.10;55.70
5870;DHT22;2961;47.702;9.410;2022-07-12T15:21:25;27.10;53.00
5870;DHT22;2961;47.702;9.410;2022-07-12T15:23:52;27.10;53.10
5870;DHT22;2961;47.702;9.410;2022-07-12T15:26:19;27.10;55.80
5870;DHT22;2961;47.702;9.410;2022-07-12T15:28:51;27.10;55.60
5870;DHT22;2961;47.702;9.410;2022-07-12T15:31:19;27.10;54.70
5870;DHT22;2961;47.702;9.410;2022-07-12T15:33:45;27.20;54.60
5870;DHT22;2961;47.702;9.410;2022-07-12T15:36:12;27.20;55.90
5870;DHT22;2961;47.702;9.410;2022-07-12T15:38:42;27.10;54.80
5870;DHT22;2961;47.702;9.410;2022-07-12T15:41:09;27.10;56.40
5870;DHT22;2961;47.702;9.410;2022-07-12T15:43:36;27.20;55.70
5870;DHT22;2961;47.702;9.410;2022-07-12T15:46:04;27.10;55.00
5870;DHT22;2961;47.702;9.410;2022-07-12T15:48:31;27.20;57.20
5870;DHT22;2961;47.702;9.410;2022-07-12T15:50:58;27.10;56.50
5870;DHT22;2961;47.702;9.410;2022-07-12T15:53:25;27.00;54.20
5870;DHT22;2961;47.702;9.410;2022-07-12T15:55:55;26.90;55.20
5870;DHT22;2961;47.702;9.410;2022-07-12T15:58:24;26.90;54.80
5870;DHT22;2961;47.702;9.410;2022-07-12T16:00:51;26.90;56.00
5870;DHT22;2961;47.702;9.410;2022-07-12T16:03:18;26.90;54.90
5870;DHT22;2961;47.702;9.410;2022-07-12T16:05:45;26.90;54.00
5870;DHT22;2961;47.702;9.410;2022-07-12T16:08:12;26.90;55.30
5870;DHT22;2961;47.702;9.410;2022-07-12T16:10:39;27.00;55.90